createdAt,value
2019-04-14T00:00:42.660Z,63.60
2019-04-14T00:03:22.106Z,61.58
2019-04-14T00:05:52.437Z,57.17
2019-04-14T00:08:21.926Z,57.30
2019-04-14T00:10:52.941Z,55.38
2019-04-14T00:13:21.814Z,56.85
2019-04-14T00:15:52.057Z,51.63
2019-04-14T00:18:21.304Z,49.80
2019-04-14T00:20:49.847Z,51.08
2019-04-14T00:23:19.447Z,50.85
2019-04-14T00:25:48.208Z,50.43
2019-04-14T00:28:16.835Z,52.60
2019-04-14T00:30:45.471Z,49.73
2019-04-14T00:33:19.247Z,53.90
2019-04-14T00:35:52.101Z,49.75
2019-04-14T00:38:28.627Z,51.58
2019-04-14T00:40:58.845Z,51.53
2019-04-14T00:43:39.521Z,48.87
2019-04-14T00:46:12.625Z,51.83
2019-04-14T00:48:41.193Z,55.70
2019-04-14T00:51:09.774Z,57.13
2019-04-14T00:53:38.331Z,58.83
2019-04-14T00:56:06.944Z,59.85
2019-04-14T00:58:35.458Z,63.25
2019-04-14T01:01:05.281Z,62.43
2019-04-14T01:03:35.091Z,63.63
2019-04-14T01:06:03.774Z,59.53
2019-04-14T01:08:33.420Z,53.78
2019-04-14T01:11:03.040Z,56.83
2019-04-14T01:13:31.685Z,58.10
2019-04-14T01:16:07.039Z,63.92
2019-04-14T01:18:31.829Z,60.70
2019-04-14T01:21:00.790Z,60.20
2019-04-14T01:23:30.410Z,66.57
2019-04-14T01:25:59.023Z,67.72
2019-04-14T01:28:28.612Z,67.00
2019-04-14T01:30:57.559Z,70.75
2019-04-14T01:33:27.162Z,71.10
2019-04-14T01:35:55.813Z,68.20
2019-04-14T01:38:25.439Z,88.62
2019-04-14T01:40:55.185Z,82.40
2019-04-14T01:43:23.850Z,91.87
2019-04-14T01:46:04.304Z,92.97
2019-04-14T01:48:23.572Z,104.97
2019-04-14T01:51:09.230Z,98.00
2019-04-14T01:53:57.461Z,129.97
2019-04-14T01:56:27.692Z,145.17
2019-04-14T01:58:57.995Z,140.92
2019-04-14T02:01:34.625Z,134.03
2019-04-14T02:04:03.462Z,107.03
2019-04-14T02:06:33.120Z,94.07
2019-04-14T02:09:03.202Z,125.58
2019-04-14T02:11:31.864Z,109.50
2019-04-14T02:14:01.477Z,84.40
2019-04-14T02:16:37.875Z,92.73
2019-04-14T02:19:00.654Z,84.55
2019-04-14T02:21:30.292Z,71.92
2019-04-14T02:24:00.354Z,72.65
2019-04-14T02:26:29.116Z,75.50
2019-04-14T02:28:57.742Z,76.60
2019-04-14T02:31:45.285Z,73.28
2019-04-14T02:34:28.359Z,65.00
2019-04-14T02:36:57.129Z,63.38
2019-04-14T02:39:38.651Z,66.77
2019-04-14T02:42:12.393Z,64.85
2019-04-14T02:46:53.436Z,69.45
2019-04-14T02:49:29.553Z,76.28
2019-04-14T02:52:00.072Z,80.85
2019-04-14T02:57:02.072Z,68.02
2019-04-14T02:59:27.037Z,74.80
2019-04-14T03:02:20.788Z,76.77
2019-04-14T03:04:27.704Z,75.32
2019-04-14T03:06:56.370Z,74.42
2019-04-14T03:09:42.379Z,68.65
2019-04-14T03:12:02.992Z,69.12
2019-04-14T03:14:31.002Z,69.15
2019-04-14T03:17:14.249Z,73.25
2019-04-14T03:19:54.992Z,68.10
2019-04-14T03:22:33.073Z,64.07
2019-04-14T03:24:42.169Z,68.40
2019-04-14T03:30:26.834Z,67.35
2019-04-14T03:32:57.961Z,68.28
2019-04-14T03:35:23.954Z,63.67
2019-04-14T03:37:45.111Z,61.23
2019-04-14T03:39:58.571Z,61.40
2019-04-14T03:45:05.414Z,63.05
2019-04-14T03:47:25.076Z,61.45
2019-04-14T03:50:09.670Z,61.05
2019-04-14T03:52:37.643Z,64.00
2019-04-14T03:54:58.500Z,61.55
2019-04-14T03:57:12.584Z,64.22
2019-04-14T03:59:41.337Z,66.70
2019-04-14T04:02:09.916Z,63.68
2019-04-14T04:04:40.107Z,61.90
2019-04-14T04:07:08.690Z,64.85
2019-04-14T04:09:39.020Z,64.20
2019-04-14T04:12:07.600Z,60.17
2019-04-14T04:14:36.125Z,65.25
2019-04-14T04:17:10.053Z,62.40
2019-04-14T04:19:43.303Z,65.45
2019-04-14T04:22:28.355Z,60.25
2019-04-14T04:24:58.617Z,61.65
2019-04-14T04:27:29.068Z,61.05
2019-04-14T04:30:02.284Z,60.60
2019-04-14T04:32:36.186Z,60.80
2019-04-14T04:35:10.707Z,61.92
2019-04-14T04:37:41.245Z,60.05
2019-04-14T04:40:24.598Z,60.30
2019-04-14T04:42:53.317Z,60.65
2019-04-14T04:45:21.947Z,62.08
2019-04-14T04:47:51.303Z,64.25
2019-04-14T04:50:19.860Z,62.83
2019-04-14T04:52:49.658Z,62.73
2019-04-14T04:55:18.172Z,60.55
2019-04-14T04:57:46.753Z,64.42
2019-04-14T05:00:15.690Z,61.30
2019-04-14T05:02:44.303Z,65.65
2019-04-14T05:05:49.265Z,62.50
2019-04-14T05:08:17.864Z,64.72
2019-04-14T05:11:05.366Z,70.97
2019-04-14T05:13:35.984Z,60.52
2019-04-14T05:16:04.873Z,62.20
2019-04-14T05:18:33.613Z,65.60
2019-04-14T05:21:02.231Z,67.00
2019-04-14T05:23:31.997Z,65.83
2019-04-14T05:26:00.811Z,64.75
2019-04-14T05:28:30.898Z,59.98
2019-04-14T05:31:01.097Z,60.75
2019-04-14T05:33:31.367Z,62.50
2019-04-14T05:35:59.997Z,59.88
2019-04-14T05:38:31.839Z,61.20
2019-04-14T05:40:58.748Z,60.67
2019-04-14T05:43:36.980Z,59.80
2019-04-14T05:45:57.495Z,55.48
2019-04-14T05:48:27.137Z,58.87
2019-04-14T05:50:55.885Z,61.90
2019-04-14T05:53:24.446Z,57.83
2019-04-14T05:55:53.009Z,57.10
2019-04-14T05:58:21.576Z,58.05
2019-04-14T06:00:51.706Z,57.80
2019-04-14T06:03:21.311Z,57.93
2019-04-14T06:05:50.052Z,58.55
2019-04-14T06:08:18.524Z,57.38
2019-04-14T06:10:47.089Z,60.45
2019-04-14T06:13:15.684Z,58.05
2019-04-14T06:15:44.163Z,57.13
2019-04-14T06:18:12.714Z,57.73
2019-04-14T06:20:41.747Z,59.27
2019-04-14T06:23:10.320Z,62.55
2019-04-14T06:25:38.872Z,61.58
2019-04-14T06:28:07.532Z,57.75
2019-04-14T06:30:46.603Z,60.10
2019-04-14T06:33:16.848Z,63.40
2019-04-14T06:35:49.784Z,64.53
2019-04-14T06:38:19.938Z,62.23
2019-04-14T06:40:52.797Z,60.58
2019-04-14T06:43:21.502Z,65.78
2019-04-14T06:45:50.197Z,59.70
2019-04-14T06:48:18.762Z,59.58
2019-04-14T06:50:47.308Z,62.67
2019-04-14T06:53:15.819Z,61.33
2019-04-14T06:55:44.357Z,56.75
2019-04-14T06:58:13.180Z,57.88
2019-04-14T07:00:41.688Z,56.23
2019-04-14T07:03:10.188Z,58.30
2019-04-14T07:05:38.746Z,54.73
2019-04-14T07:08:07.345Z,57.75
2019-04-14T07:10:35.992Z,56.70
2019-04-14T07:13:04.720Z,52.15
2019-04-14T07:15:33.332Z,52.75
2019-04-14T07:18:01.882Z,53.10
2019-04-14T07:20:30.444Z,53.40
2019-04-14T07:22:58.978Z,50.15
2019-04-14T07:25:27.522Z,51.60
2019-04-14T07:27:56.143Z,53.95
2019-04-14T07:30:32.249Z,54.10
2019-04-14T07:33:04.899Z,51.75
2019-04-14T07:35:43.543Z,52.55
2019-04-14T07:38:16.643Z,52.23
2019-04-14T07:41:02.982Z,49.13
2019-04-14T07:43:33.165Z,48.95
2019-04-14T07:46:03.412Z,45.75
2019-04-14T07:48:33.648Z,47.83
2019-04-14T07:51:19.988Z,47.25
2019-04-14T07:53:55.991Z,48.87
2019-04-14T07:56:26.184Z,49.30
2019-04-14T07:59:12.372Z,49.35
2019-04-14T08:01:45.447Z,46.00
2019-04-14T08:04:15.876Z,49.20
2019-04-14T08:06:46.259Z,45.00
2019-04-14T08:09:14.801Z,46.73
2019-04-14T08:11:43.389Z,43.58
2019-04-14T08:14:12.073Z,45.95
2019-04-14T08:16:40.631Z,43.35
2019-04-14T08:19:09.114Z,42.75
2019-04-14T08:21:37.700Z,50.20
2019-04-14T08:24:06.184Z,44.15
2019-04-14T08:26:34.736Z,44.80
2019-04-14T08:29:03.307Z,44.63
2019-04-14T08:31:31.859Z,45.65
2019-04-14T08:34:00.424Z,43.63
2019-04-14T08:36:29.074Z,44.53
2019-04-14T08:38:57.685Z,43.23
2019-04-14T08:41:27.880Z,47.40
2019-04-14T08:44:12.678Z,45.80
2019-04-14T08:46:54.673Z,46.20
2019-04-14T08:49:36.703Z,41.80
2019-04-14T08:52:09.768Z,42.70
2019-04-14T08:54:48.684Z,43.73
2019-04-14T08:57:18.824Z,43.83
2019-04-14T08:59:49.095Z,44.93
2019-04-14T09:02:21.926Z,43.73
2019-04-14T09:04:54.729Z,45.88
2019-04-14T09:07:24.960Z,44.55
2019-04-14T09:09:55.154Z,45.10
2019-04-14T09:12:25.676Z,41.90
2019-04-14T09:14:57.332Z,44.00
2019-04-14T09:17:25.880Z,44.63
2019-04-14T09:19:54.454Z,43.07
2019-04-14T09:22:23.015Z,46.35
2019-04-14T09:24:51.612Z,42.83
2019-04-14T09:27:20.472Z,46.73
2019-04-14T09:29:48.960Z,43.80
2019-04-14T09:32:17.740Z,42.27
2019-04-14T09:34:46.501Z,44.98
2019-04-14T09:37:15.021Z,44.08
2019-04-14T09:39:43.600Z,44.65
2019-04-14T09:42:12.170Z,41.92
2019-04-14T09:44:40.738Z,40.90
2019-04-14T09:47:09.381Z,40.23
2019-04-14T09:49:38.158Z,42.40
2019-04-14T09:52:06.803Z,43.92
2019-04-14T09:54:35.288Z,44.50
2019-04-14T09:57:03.795Z,43.25
2019-04-14T09:59:32.276Z,46.60
2019-04-14T10:02:01.197Z,43.87
2019-04-14T10:04:29.828Z,44.65
2019-04-14T10:06:58.696Z,44.73
2019-04-14T10:09:27.596Z,42.70
2019-04-14T10:11:56.657Z,45.90
2019-04-14T10:14:25.248Z,41.83
2019-04-14T10:16:54.249Z,42.25
2019-04-14T10:19:23.024Z,42.45
2019-04-14T10:21:51.983Z,41.37
2019-04-14T10:24:20.739Z,40.40
2019-04-14T10:26:50.348Z,41.00
2019-04-14T10:29:18.828Z,39.38
2019-04-14T10:31:47.397Z,39.03
2019-04-14T10:34:15.960Z,39.67
2019-04-14T10:36:44.619Z,39.13
2019-04-14T10:39:13.236Z,39.05
2019-04-14T10:41:42.219Z,41.50
2019-04-14T10:44:10.874Z,41.15
2019-04-14T10:46:40.471Z,38.33
2019-04-14T10:49:09.261Z,37.88
2019-04-14T10:51:37.846Z,38.00
2019-04-14T10:54:06.935Z,38.80
2019-04-14T10:56:35.508Z,38.40
2019-04-14T10:59:04.128Z,38.83
2019-04-14T11:01:32.997Z,39.38
2019-04-14T11:04:02.047Z,39.07
2019-04-14T11:06:32.321Z,39.13
2019-04-14T11:09:00.823Z,39.95
2019-04-14T11:11:29.404Z,38.58
2019-04-14T11:13:57.930Z,39.03
2019-04-14T11:16:26.561Z,38.60
2019-04-14T11:18:55.189Z,38.33
2019-04-14T11:21:23.694Z,39.03
2019-04-14T11:23:52.345Z,37.93
2019-04-14T11:26:20.984Z,38.30
2019-04-14T11:28:49.554Z,38.40
2019-04-14T11:31:19.719Z,39.25
2019-04-14T11:33:58.573Z,39.05
2019-04-14T11:36:44.583Z,39.40
2019-04-14T11:39:14.719Z,40.85
2019-04-14T11:41:43.316Z,37.63
2019-04-14T11:44:11.871Z,38.48
2019-04-14T11:46:40.453Z,38.33
2019-04-14T11:49:09.323Z,40.20
2019-04-14T11:51:37.918Z,38.53
2019-04-14T11:54:06.618Z,39.20
2019-04-14T11:56:35.193Z,37.67
2019-04-14T11:59:03.836Z,40.00
2019-04-14T12:01:43.141Z,39.17
2019-04-14T12:04:25.583Z,41.37
2019-04-14T12:06:58.568Z,41.05
2019-04-14T12:09:45.001Z,40.03
2019-04-14T12:12:13.569Z,36.95
2019-04-14T12:14:42.286Z,38.83
2019-04-14T12:17:10.891Z,41.80
2019-04-14T12:19:39.524Z,37.15
2019-04-14T12:22:08.838Z,37.65
2019-04-14T12:24:37.530Z,38.35
2019-04-14T12:27:06.081Z,38.73
2019-04-14T12:29:34.854Z,39.13
2019-04-14T12:32:04.069Z,38.17
2019-04-14T12:34:32.666Z,40.08
2019-04-14T12:37:01.438Z,38.00
2019-04-14T12:39:30.077Z,39.35
2019-04-14T12:42:03.028Z,38.83
2019-04-14T12:44:45.499Z,39.10
2019-04-14T12:47:15.845Z,39.88
2019-04-14T12:49:54.755Z,37.30
2019-04-14T12:52:24.882Z,39.83
2019-04-14T12:54:53.437Z,38.30
2019-04-14T12:57:32.609Z,38.55
2019-04-14T13:00:01.096Z,35.95
2019-04-14T13:02:31.313Z,37.25
2019-04-14T13:04:59.821Z,39.20
2019-04-14T13:07:28.389Z,36.60
2019-04-14T13:09:56.988Z,37.67
2019-04-14T13:12:25.696Z,36.08
2019-04-14T13:14:54.272Z,36.98
2019-04-14T13:17:22.868Z,36.60
2019-04-14T13:19:51.867Z,34.63
2019-04-14T13:22:32.989Z,34.35
2019-04-14T13:24:50.941Z,34.73
2019-04-14T13:27:19.455Z,33.18
2019-04-14T13:29:48.092Z,33.18
2019-04-14T13:32:16.751Z,32.37
2019-04-14T13:34:45.383Z,32.17
2019-04-14T13:37:14.030Z,31.07
2019-04-14T13:39:42.639Z,29.72
2019-04-14T13:42:11.183Z,29.50
2019-04-14T13:44:39.788Z,28.10
2019-04-14T13:47:08.396Z,26.30
2019-04-14T13:49:36.892Z,27.93
2019-04-14T13:52:05.573Z,29.52
2019-04-14T13:54:34.145Z,42.55
2019-04-14T13:57:02.702Z,26.00
2019-04-14T13:59:31.384Z,23.83
2019-04-14T14:02:00.006Z,22.80
2019-04-14T14:04:28.615Z,22.65
2019-04-14T14:06:57.199Z,21.85
2019-04-14T14:09:25.747Z,25.52
2019-04-14T14:12:12.037Z,23.80
2019-04-14T14:14:42.224Z,24.07
2019-04-14T14:17:15.199Z,21.40
2019-04-14T14:19:45.978Z,22.73
2019-04-14T14:22:16.187Z,23.52
2019-04-14T14:24:55.551Z,24.43
2019-04-14T14:27:24.041Z,22.65
2019-04-14T14:29:52.638Z,22.77
2019-04-14T14:32:22.850Z,23.12
2019-04-14T14:34:51.417Z,22.90
2019-04-14T14:37:20.075Z,24.27
2019-04-14T14:39:48.697Z,24.45
2019-04-14T14:42:17.264Z,24.55
2019-04-14T14:44:47.416Z,23.32
2019-04-14T14:47:20.576Z,25.27
2019-04-14T14:49:59.632Z,25.52
2019-04-14T14:52:28.193Z,25.43
2019-04-14T14:54:57.056Z,25.60
2019-04-14T14:57:25.648Z,24.27
2019-04-14T14:59:54.212Z,22.67
2019-04-14T15:02:23.108Z,23.90
2019-04-14T15:04:51.710Z,23.40
2019-04-14T15:07:20.350Z,23.27
2019-04-14T15:09:48.972Z,23.55
2019-04-14T15:12:17.488Z,25.43
2019-04-14T15:14:45.984Z,23.12
2019-04-14T15:17:14.898Z,24.90
2019-04-14T15:19:43.460Z,24.30
2019-04-14T15:22:12.170Z,24.43
2019-04-14T15:24:40.757Z,23.42
2019-04-14T15:27:09.307Z,24.45
2019-04-14T15:29:37.843Z,24.07
2019-04-14T15:32:06.479Z,24.25
2019-04-14T15:34:35.404Z,23.95
2019-04-14T15:37:04.654Z,23.50
2019-04-14T15:39:33.210Z,24.02
2019-04-14T15:42:01.773Z,24.00
2019-04-14T15:44:30.360Z,22.63
2019-04-14T15:46:59.004Z,25.52
2019-04-14T15:49:27.509Z,22.67
2019-04-14T15:51:56.150Z,21.10
2019-04-14T15:54:25.599Z,23.18
2019-04-14T15:57:01.862Z,22.73
2019-04-14T15:59:31.985Z,21.97
2019-04-14T16:02:14.308Z,22.42
2019-04-14T16:04:53.671Z,22.40
2019-04-14T16:07:33.067Z,23.65
2019-04-14T16:10:03.597Z,21.77
2019-04-14T16:12:36.321Z,21.12
2019-04-14T16:15:17.289Z,21.77
2019-04-14T16:17:53.372Z,22.13
2019-04-14T16:20:23.616Z,21.42
2019-04-14T16:22:52.095Z,20.65
2019-04-14T16:25:22.283Z,22.02
2019-04-14T16:27:55.200Z,22.93
2019-04-14T16:30:25.404Z,19.98
2019-04-14T16:33:04.923Z,21.00
2019-04-14T16:35:34.720Z,20.62
2019-04-14T16:38:03.281Z,19.05
2019-04-14T16:40:31.823Z,19.25
2019-04-14T16:43:00.373Z,19.70
2019-04-14T16:45:28.856Z,19.62
2019-04-14T16:47:57.377Z,18.27
2019-04-14T16:50:25.945Z,19.57
2019-04-14T16:52:59.176Z,18.98
2019-04-14T16:55:30.099Z,18.07
2019-04-14T16:58:18.114Z,18.17
2019-04-14T17:00:48.324Z,17.87
2019-04-14T17:03:16.868Z,18.42
2019-04-14T17:05:45.361Z,18.80
2019-04-14T17:08:13.955Z,17.82
2019-04-14T17:10:42.453Z,18.67
2019-04-14T17:13:11.024Z,18.32
2019-04-14T17:15:52.827Z,16.80
2019-04-14T17:18:22.969Z,17.05
2019-04-14T17:21:09.523Z,17.43
2019-04-14T17:23:39.734Z,16.93
2019-04-14T17:26:10.023Z,16.73
2019-04-14T17:28:56.939Z,17.55
2019-04-14T17:31:33.276Z,34.70
2019-04-14T17:34:20.296Z,18.00
2019-04-14T17:37:06.749Z,17.48
2019-04-14T17:39:45.572Z,17.52
2019-04-14T17:42:15.711Z,19.40
2019-04-14T17:44:46.018Z,19.45
2019-04-14T17:47:34.365Z,18.65
2019-04-14T17:50:20.827Z,18.02
2019-04-14T17:52:51.078Z,21.15
2019-04-14T17:55:27.298Z,17.70
2019-04-14T17:58:13.638Z,18.23
2019-04-14T18:00:52.834Z,20.37
2019-04-14T18:03:31.648Z,18.73
2019-04-14T18:06:10.882Z,18.23
2019-04-14T18:08:46.753Z,20.37
2019-04-14T18:11:16.952Z,18.20
2019-04-14T18:13:47.136Z,18.75
2019-04-14T18:16:17.377Z,23.70
2019-04-14T18:19:03.828Z,20.95
2019-04-14T18:21:32.882Z,72.93
2019-04-14T18:24:01.524Z,20.27
2019-04-14T18:26:30.077Z,19.20
2019-04-14T18:29:16.680Z,20.25
2019-04-14T18:31:49.281Z,19.87
2019-04-14T18:34:35.907Z,21.10
2019-04-14T18:37:24.621Z,19.62
2019-04-14T18:39:57.588Z,20.52
2019-04-14T18:42:27.780Z,20.95
2019-04-14T18:45:00.797Z,22.15
2019-04-14T18:47:47.560Z,20.87
2019-04-14T18:50:17.683Z,20.37
2019-04-14T18:53:03.957Z,21.40
2019-04-14T18:55:46.641Z,23.07
2019-04-14T18:58:19.611Z,21.85
2019-04-14T19:00:49.877Z,23.20
2019-04-14T19:03:18.431Z,20.37
2019-04-14T19:05:48.495Z,20.63
2019-04-14T19:08:16.976Z,24.00
2019-04-14T19:10:47.227Z,23.00
2019-04-14T19:13:20.441Z,23.50
2019-04-14T19:15:59.815Z,24.85
2019-04-14T19:18:36.144Z,21.80
2019-04-14T19:21:06.865Z,24.60
2019-04-14T19:23:35.886Z,21.60
2019-04-14T19:26:04.629Z,23.18
2019-04-14T19:28:33.542Z,21.95
2019-04-14T19:31:02.170Z,22.27
2019-04-14T19:33:30.749Z,24.25
2019-04-14T19:35:59.324Z,24.95
2019-04-14T19:38:28.171Z,23.55
2019-04-14T19:40:56.680Z,23.92
2019-04-14T19:43:25.168Z,22.42
2019-04-14T19:45:56.366Z,24.32
2019-04-14T19:48:24.065Z,25.62
2019-04-14T19:50:52.626Z,22.50
2019-04-14T19:53:21.537Z,23.73
2019-04-14T19:55:50.115Z,21.82
2019-04-14T19:58:18.605Z,22.85
2019-04-14T20:00:47.393Z,21.73
2019-04-14T20:03:16.573Z,21.42
2019-04-14T20:05:45.190Z,23.25
2019-04-14T20:08:13.952Z,22.58
2019-04-14T20:10:42.635Z,21.23
2019-04-14T20:13:11.330Z,20.47
2019-04-14T20:15:57.839Z,20.72
2019-04-14T20:18:28.032Z,19.77
2019-04-14T20:21:07.419Z,20.25
2019-04-14T20:23:37.673Z,19.55
2019-04-14T20:26:13.958Z,22.77
2019-04-14T20:29:02.493Z,20.72
2019-04-14T20:31:32.790Z,20.82
2019-04-14T20:34:01.417Z,22.07
2019-04-14T20:36:30.193Z,20.25
2019-04-14T20:38:58.725Z,22.73
2019-04-14T20:41:27.372Z,22.82
2019-04-14T20:43:55.973Z,20.27
2019-04-14T20:46:24.460Z,22.20
2019-04-14T20:48:53.100Z,21.87
2019-04-14T20:51:21.692Z,21.87
2019-04-14T20:53:50.260Z,22.00
2019-04-14T20:56:18.798Z,21.02
2019-04-14T20:58:47.338Z,20.85
2019-04-14T21:01:16.532Z,19.82
2019-04-14T21:03:52.799Z,20.00
2019-04-14T21:06:29.107Z,20.57
2019-04-14T21:08:59.530Z,19.65
2019-04-14T21:11:38.734Z,19.55
2019-04-14T21:14:15.234Z,20.35
2019-04-14T21:16:48.370Z,19.42
2019-04-14T21:19:18.504Z,19.70
2019-04-14T21:21:48.724Z,21.95
2019-04-14T21:24:35.569Z,19.52
2019-04-14T21:27:23.640Z,19.80
2019-04-14T21:29:53.848Z,21.68
2019-04-14T21:32:24.356Z,21.30
2019-04-14T21:35:03.453Z,19.80
2019-04-14T21:37:51.717Z,22.37
2019-04-14T21:40:24.699Z,21.70
2019-04-14T21:42:53.240Z,20.05
2019-04-14T21:45:21.711Z,22.33
2019-04-14T21:47:50.584Z,21.27
2019-04-14T21:50:19.279Z,21.80
2019-04-14T21:52:49.807Z,20.10
2019-04-14T21:55:18.656Z,21.25
2019-04-14T21:57:51.748Z,21.52
2019-04-14T22:00:41.028Z,19.87
2019-04-14T22:03:26.538Z,20.52
2019-04-14T22:06:09.013Z,19.27
2019-04-14T22:08:39.485Z,21.17
2019-04-14T22:11:09.752Z,20.55
2019-04-14T22:13:38.336Z,21.60
2019-04-14T22:16:07.325Z,19.37
2019-04-14T22:18:36.094Z,20.80
2019-04-14T22:21:04.798Z,20.08
2019-04-14T22:23:33.416Z,21.15
2019-04-14T22:26:02.000Z,21.97
2019-04-14T22:28:30.481Z,20.90
2019-04-14T22:30:59.235Z,20.70
2019-04-14T22:33:27.743Z,19.75
2019-04-14T22:35:56.239Z,21.30
2019-04-14T22:38:24.824Z,19.57
2019-04-14T22:40:53.714Z,19.45
2019-04-14T22:43:22.437Z,19.63
2019-04-14T22:45:51.504Z,21.12
2019-04-14T22:48:20.151Z,18.95
2019-04-14T22:50:48.793Z,20.37
2019-04-14T22:53:17.367Z,21.40
2019-04-14T22:55:45.991Z,21.93
2019-04-14T22:58:14.553Z,20.80
2019-04-14T23:00:44.925Z,20.20
2019-04-14T23:03:24.492Z,19.10
2019-04-14T23:05:54.984Z,19.60
2019-04-14T23:08:25.186Z,19.85
2019-04-14T23:11:08.040Z,22.00
2019-04-14T23:13:38.255Z,20.05
2019-04-14T23:16:24.129Z,20.12
2019-04-14T23:18:57.865Z,19.82
2019-04-14T23:21:28.387Z,21.17
2019-04-14T23:24:13.964Z,20.20
2019-04-14T23:26:52.449Z,21.60
2019-04-14T23:29:12.876Z,20.50
2019-04-14T23:31:41.360Z,21.17
2019-04-14T23:34:10.016Z,22.65
2019-04-14T23:36:38.516Z,21.50
2019-04-14T23:39:09.599Z,21.55
2019-04-14T23:41:38.183Z,21.90
2019-04-14T23:44:06.935Z,22.35
2019-04-14T23:46:35.470Z,22.37
2019-04-14T23:49:04.080Z,21.87
2019-04-14T23:51:32.700Z,21.00
2019-04-14T23:54:01.794Z,20.60
2019-04-14T23:56:30.616Z,21.42
2019-04-14T23:58:59.174Z,20.30
